Manseau, Canada
Current Conditions -  °F | °C
As of 7:00 PM on Friday 24 Oct 2014 (Local Time) from CYRQ Reporting Station
Broken Clouds Broken Clouds  
Wind Chill: 43°   Ceiling: 11000
Heat Index: 43°   Visibility: 9mi
Dew Point: 41°   Wind: 2mph
Humidity: 93%   Direction: NA
Pressure: 29.82"   Gusts: NA
Location:  46.37°N, 72.02°W
Report Text: CYRQ 242300Z AUTO VRB02KT 9SM BKN110 06/05 A2982 RMK SLP098
Loading
Personal Weather Stations






























Interactive Weather Map
Tropical Storm Tracking
New forecast layout! Learn more

10-Day Weather Forecast

Advertisements
Track Severe Weather on mobile